createdAt,value
2022-09-28T00:04:23.716Z,54.65
2022-09-28T00:06:51.992Z,54.64
2022-09-28T00:09:21.663Z,54.66
2022-09-28T00:11:49.864Z,54.32
2022-09-28T00:14:18.117Z,54.54
2022-09-28T00:16:46.435Z,54.44
2022-09-28T00:19:15.126Z,54.35
2022-09-28T00:21:44.091Z,54.44
2022-09-28T00:24:15.241Z,54.33
2022-09-28T00:26:48.913Z,54.49
2022-09-28T00:29:21.995Z,54.46
2022-09-28T00:31:53.295Z,54.68
2022-09-28T00:34:21.992Z,54.76
2022-09-28T00:36:50.337Z,54.70
2022-09-28T00:39:19.264Z,54.86
2022-09-28T00:41:50.198Z,54.96
2022-09-28T00:44:41.053Z,54.79
2022-09-28T00:47:27.933Z,54.88
2022-09-28T00:50:00.953Z,54.88
2022-09-28T00:52:35.701Z,54.95
2022-09-28T00:55:09.022Z,55.12
2022-09-28T00:57:41.772Z,55.21
2022-09-28T01:00:11.837Z,55.16
2022-09-28T01:02:40.182Z,55.24
2022-09-28T01:05:10.885Z,55.34
2022-09-28T01:07:39.475Z,55.29
2022-09-28T01:10:09.793Z,55.35
2022-09-28T01:12:39.569Z,55.43
2022-09-28T01:15:08.874Z,55.62
2022-09-28T01:17:51.029Z,55.75
2022-09-28T01:20:40.743Z,55.57
2022-09-28T01:23:50.405Z,55.68
2022-09-28T01:26:44.591Z,56.01
2022-09-28T01:29:23.230Z,56.02
2022-09-28T01:31:59.737Z,56.00
2022-09-28T01:34:35.688Z,56.12
2022-09-28T01:37:08.335Z,56.24
2022-09-28T01:39:40.790Z,56.28
2022-09-28T01:42:15.758Z,56.29
2022-09-28T01:44:47.754Z,56.49
2022-09-28T01:47:19.225Z,56.20
2022-09-28T01:49:50.541Z,56.28
2022-09-28T01:52:24.384Z,56.25
2022-09-28T01:54:59.604Z,56.17
2022-09-28T01:57:35.759Z,56.10
2022-09-28T02:00:08.827Z,56.15
2022-09-28T02:02:41.432Z,55.97
2022-09-28T02:05:15.139Z,56.19
2022-09-28T02:07:49.886Z,56.16
2022-09-28T02:10:24.651Z,56.11
2022-09-28T02:13:02.055Z,56.09
2022-09-28T02:15:37.584Z,56.25
2022-09-28T02:18:06.491Z,56.49
2022-09-28T02:20:37.868Z,56.44
2022-09-28T02:23:06.447Z,56.48
2022-09-28T02:25:40.953Z,56.52
2022-09-28T02:28:14.270Z,56.47
2022-09-28T02:30:45.356Z,56.62
2022-09-28T02:33:16.822Z,56.64
2022-09-28T02:35:45.220Z,56.75
2022-09-28T02:38:15.616Z,56.85
2022-09-28T02:40:54.213Z,56.78
2022-09-28T02:43:28.375Z,56.86
2022-09-28T02:46:07.332Z,56.81
2022-09-28T02:49:10.516Z,56.73
2022-09-28T02:51:49.871Z,56.92
2022-09-28T02:54:38.899Z,56.94
2022-09-28T02:57:19.686Z,56.83
2022-09-28T03:00:08.008Z,56.81
2022-09-28T03:02:42.912Z,57.00
2022-09-28T03:05:20.161Z,56.81
2022-09-28T03:07:59.444Z,56.62
2022-09-28T03:10:39.362Z,56.77
2022-09-28T03:13:08.884Z,56.79
2022-09-28T03:15:38.851Z,56.91
2022-09-28T03:18:07.212Z,56.83
2022-09-28T03:20:35.889Z,56.81
2022-09-28T03:25:53.020Z,56.79
2022-09-28T03:28:22.068Z,56.89
2022-09-28T03:30:51.807Z,56.84
2022-09-28T03:33:20.335Z,56.76
2022-09-28T03:35:50.343Z,56.84
2022-09-28T03:38:18.992Z,56.85
2022-09-28T03:40:54.840Z,56.96
2022-09-28T03:43:23.598Z,56.96
2022-09-28T03:45:58.456Z,56.91
2022-09-28T03:48:32.076Z,56.85
2022-09-28T03:51:02.790Z,56.97
2022-09-28T03:53:31.379Z,56.98
2022-09-28T03:56:04.583Z,56.98
2022-09-28T03:58:33.364Z,56.99
2022-09-28T04:01:10.771Z,56.96
2022-09-28T04:03:41.214Z,56.81
2022-09-28T04:06:09.683Z,57.06
2022-09-28T04:08:37.915Z,57.06
2022-09-28T04:11:06.455Z,57.02
2022-09-28T04:13:34.779Z,57.13
2022-09-28T04:16:03.846Z,57.20
2022-09-28T04:18:34.592Z,57.51
2022-09-28T04:21:06.690Z,57.40
2022-09-28T04:23:36.139Z,57.35
2022-09-28T04:26:04.916Z,57.25
2022-09-28T04:28:50.770Z,57.49
2022-09-28T04:31:22.278Z,57.36
2022-09-28T04:33:51.965Z,57.40
2022-09-28T04:36:20.727Z,57.44
2022-09-28T04:38:53.303Z,57.44
2022-09-28T04:41:22.874Z,57.52
2022-09-28T04:43:51.555Z,57.38
2022-09-28T04:46:20.338Z,57.39
2022-09-28T04:48:48.694Z,57.59
2022-09-28T04:51:18.360Z,57.47
2022-09-28T04:53:46.875Z,57.61
2022-09-28T04:56:17.298Z,57.48
2022-09-28T04:58:51.762Z,57.88
2022-09-28T05:01:23.709Z,57.54
2022-09-28T05:03:52.426Z,57.86
2022-09-28T05:06:22.982Z,57.78
2022-09-28T05:08:51.256Z,57.74
2022-09-28T05:11:21.366Z,57.75
2022-09-28T05:13:50.450Z,57.58
2022-09-28T05:16:20.484Z,57.95
2022-09-28T05:18:48.865Z,58.07
2022-09-28T05:21:19.597Z,57.93
2022-09-28T05:23:49.523Z,57.93
2022-09-28T05:26:18.122Z,58.07
2022-09-28T05:28:46.414Z,58.17
2022-09-28T05:31:14.979Z,57.91
2022-09-28T05:33:43.443Z,58.25
2022-09-28T05:36:12.427Z,58.42
2022-09-28T05:38:40.706Z,58.25
2022-09-28T05:41:10.462Z,58.40
2022-09-28T05:43:39.445Z,58.81
2022-09-28T05:46:08.379Z,58.74
2022-09-28T05:48:36.879Z,58.94
2022-09-28T05:51:05.299Z,58.74
2022-09-28T05:53:33.557Z,58.81
2022-09-28T05:56:02.264Z,58.57
2022-09-28T05:58:31.957Z,58.73
2022-09-28T06:01:00.325Z,58.90
2022-09-28T06:03:29.050Z,58.59
2022-09-28T06:05:57.382Z,58.85
2022-09-28T06:08:25.647Z,58.60
2022-09-28T06:10:53.884Z,58.54
2022-09-28T06:13:22.135Z,58.50
2022-09-28T06:15:51.760Z,58.60
2022-09-28T06:18:20.107Z,58.51
2022-09-28T06:20:48.380Z,58.81
2022-09-28T06:23:16.875Z,58.90
2022-09-28T06:25:45.361Z,58.63
2022-09-28T06:28:15.554Z,58.91
2022-09-28T06:30:45.267Z,58.73
2022-09-28T06:33:16.400Z,58.49
2022-09-28T06:35:44.848Z,58.72
2022-09-28T06:38:13.385Z,58.69
2022-09-28T06:40:41.671Z,58.50
2022-09-28T06:43:15.149Z,58.69
2022-09-28T06:45:44.447Z,58.30
2022-09-28T06:48:15.060Z,58.33
2022-09-28T06:50:43.752Z,58.37
2022-09-28T06:53:15.268Z,58.30
2022-09-28T06:55:48.244Z,58.21
2022-09-28T06:58:20.145Z,58.52
2022-09-28T07:00:49.837Z,58.21
2022-09-28T07:03:21.616Z,58.22
2022-09-28T07:05:53.925Z,58.10
2022-09-28T07:08:25.456Z,58.00
2022-09-28T07:10:56.293Z,58.00
2022-09-28T07:16:14.718Z,58.30
2022-09-28T07:18:44.567Z,58.13
2022-09-28T07:21:24.258Z,58.14
2022-09-28T07:23:55.251Z,58.04
2022-09-28T07:26:24.754Z,58.19
2022-09-28T07:28:55.826Z,58.18
2022-09-28T07:31:26.226Z,58.41
2022-09-28T07:33:56.419Z,58.24
2022-09-28T07:36:24.726Z,58.46
2022-09-28T07:38:53.145Z,58.48
2022-09-28T07:41:32.189Z,58.27
2022-09-28T07:44:06.089Z,58.54
2022-09-28T07:46:35.025Z,58.90
2022-09-28T07:49:08.365Z,58.97
2022-09-28T07:51:39.811Z,59.12
2022-09-28T07:54:08.221Z,59.25
2022-09-28T07:56:36.502Z,59.52
2022-09-28T07:59:04.839Z,59.47
2022-09-28T08:01:33.161Z,59.11
2022-09-28T08:04:01.609Z,59.19
2022-09-28T08:06:32.355Z,59.11
2022-09-28T08:09:01.891Z,59.25
2022-09-28T08:11:30.743Z,59.11
2022-09-28T08:14:00.247Z,59.17
2022-09-28T08:16:30.207Z,59.29
2022-09-28T08:18:58.561Z,59.05
2022-09-28T08:21:44.365Z,59.08
2022-09-28T08:24:15.508Z,58.87
2022-09-28T08:26:44.273Z,58.94
2022-09-28T08:29:13.001Z,58.94
2022-09-28T08:31:41.290Z,59.17
2022-09-28T08:34:09.916Z,58.92
2022-09-28T08:36:39.438Z,59.01
2022-09-28T08:39:07.911Z,58.83
2022-09-28T08:41:47.564Z,58.61
2022-09-28T08:44:24.013Z,58.64
2022-09-28T08:46:56.783Z,58.59
2022-09-28T08:49:31.075Z,58.88
2022-09-28T08:52:03.866Z,58.23
2022-09-28T08:54:41.965Z,58.59
2022-09-28T08:57:17.570Z,58.50
2022-09-28T08:59:51.495Z,58.74
2022-09-28T09:02:25.459Z,58.86
2022-09-28T09:04:54.512Z,58.83
2022-09-28T09:07:59.407Z,58.87
2022-09-28T09:10:48.959Z,59.17
2022-09-28T09:13:45.769Z,59.04
2022-09-28T09:16:30.657Z,59.25
2022-09-28T09:19:13.927Z,59.55
2022-09-28T09:21:43.940Z,59.36
2022-09-28T09:24:27.274Z,59.23
2022-09-28T09:27:07.595Z,59.63
2022-09-28T09:30:04.899Z,59.66
2022-09-28T09:33:08.532Z,59.68
2022-09-28T09:36:05.279Z,59.61
2022-09-28T09:38:46.124Z,59.48
2022-09-28T09:41:40.291Z,59.15
2022-09-28T09:44:44.076Z,59.09
2022-09-28T09:47:18.183Z,59.15
2022-09-28T09:49:50.936Z,59.06
2022-09-28T09:52:25.691Z,59.51
2022-09-28T09:54:59.611Z,59.18
2022-09-28T09:57:33.533Z,59.16
2022-09-28T10:00:04.852Z,59.19
2022-09-28T10:02:36.774Z,59.42
2022-09-28T10:05:19.533Z,59.20
2022-09-28T10:07:54.249Z,59.16
2022-09-28T10:10:28.245Z,59.34
2022-09-28T10:12:57.109Z,59.05
2022-09-28T10:15:28.046Z,59.24
2022-09-28T10:18:00.376Z,59.54
2022-09-28T10:20:30.781Z,59.72
2022-09-28T10:23:02.149Z,59.48
2022-09-28T10:25:34.289Z,59.23
2022-09-28T10:28:06.240Z,58.73
2022-09-28T10:30:42.026Z,58.36
2022-09-28T10:33:31.198Z,58.56
2022-09-28T10:36:01.623Z,58.78
2022-09-28T10:38:31.653Z,58.62
2022-09-28T10:41:02.286Z,58.32
2022-09-28T10:43:33.564Z,57.93
2022-09-28T10:46:06.026Z,57.74
2022-09-28T10:48:52.289Z,57.63
2022-09-28T10:51:20.865Z,57.90
2022-09-28T10:54:01.751Z,57.27
2022-09-28T10:56:37.083Z,57.36
2022-09-28T10:59:26.522Z,57.56
2022-09-28T11:01:57.529Z,57.18
2022-09-28T11:04:31.369Z,57.02
2022-09-28T11:07:01.108Z,56.77
2022-09-28T11:09:33.346Z,56.78
2022-09-28T11:12:05.942Z,56.97
2022-09-28T11:14:42.213Z,56.80
2022-09-28T11:17:19.317Z,56.25
2022-09-28T11:19:48.907Z,55.97
2022-09-28T11:22:28.899Z,55.45
2022-09-28T11:25:24.164Z,55.54
2022-09-28T11:28:04.212Z,55.54
2022-09-28T11:30:35.860Z,55.30
2022-09-28T11:33:08.170Z,55.32
2022-09-28T11:35:50.529Z,55.18
2022-09-28T11:38:34.925Z,55.33
2022-09-28T11:41:23.074Z,55.82
2022-09-28T11:44:18.944Z,55.83
2022-09-28T11:47:00.475Z,55.64
2022-09-28T11:49:36.502Z,56.09
2022-09-28T11:52:14.990Z,55.76
2022-09-28T11:54:49.547Z,55.92
2022-09-28T11:57:24.027Z,55.89
2022-09-28T11:59:59.981Z,55.79
2022-09-28T12:02:36.595Z,55.86
2022-09-28T12:05:19.832Z,55.81
2022-09-28T12:07:55.160Z,56.00
2022-09-28T12:10:44.662Z,56.06
2022-09-28T12:13:19.495Z,56.33
2022-09-28T12:16:17.447Z,56.43
2022-09-28T12:18:50.122Z,56.68
2022-09-28T12:21:36.219Z,55.81
2022-09-28T12:24:18.159Z,55.94
2022-09-28T12:26:54.265Z,56.08
2022-09-28T12:29:28.540Z,56.26
2022-09-28T12:32:07.072Z,55.96
2022-09-28T12:34:35.377Z,55.32
2022-09-28T12:37:20.367Z,55.25
2022-09-28T12:40:05.848Z,54.84
2022-09-28T12:42:52.913Z,55.04
2022-09-28T12:46:10.907Z,54.93
2022-09-28T12:50:19.997Z,54.95
2022-09-28T12:52:01.455Z,55.03
2022-09-28T12:54:50.676Z,55.09
2022-09-28T12:57:38.518Z,55.24
2022-09-28T13:00:11.497Z,55.23
2022-09-28T13:03:31.206Z,55.28
2022-09-28T13:06:24.659Z,54.65
2022-09-28T13:09:19.957Z,54.81
2022-09-28T13:12:06.527Z,54.79
2022-09-28T13:15:27.800Z,54.59
2022-09-28T13:18:05.215Z,54.54
2022-09-28T13:21:01.260Z,54.46
2022-09-28T13:23:35.831Z,54.21
2022-09-28T13:26:16.587Z,54.02
2022-09-28T13:28:46.983Z,54.10
2022-09-28T13:31:21.938Z,53.87
2022-09-28T13:33:52.363Z,53.85
2022-09-28T13:36:48.040Z,53.97
2022-09-28T13:39:39.704Z,53.85
2022-09-28T13:42:10.821Z,53.88
2022-09-28T13:45:04.508Z,53.91
2022-09-28T13:47:57.982Z,54.04
2022-09-28T13:50:42.350Z,53.59
2022-09-28T13:53:22.084Z,53.29
2022-09-28T13:55:58.452Z,53.31
2022-09-28T13:58:29.525Z,52.98
2022-09-28T14:01:05.281Z,53.07
2022-09-28T14:03:55.928Z,53.21
2022-09-28T14:06:27.300Z,53.46
2022-09-28T14:09:43.488Z,53.19
2022-09-28T14:12:50.269Z,53.19
2022-09-28T14:15:45.335Z,53.16
2022-09-28T14:18:24.779Z,52.95
2022-09-28T14:21:20.239Z,52.78
2022-09-28T14:24:04.336Z,52.68
2022-09-28T14:27:11.555Z,52.59
2022-09-28T14:29:41.279Z,52.50
2022-09-28T14:32:25.641Z,52.97
2022-09-28T14:35:00.928Z,52.48
2022-09-28T14:37:51.469Z,52.10
2022-09-28T14:40:40.466Z,52.41
2022-09-28T14:43:36.857Z,52.95
2022-09-28T14:46:43.494Z,52.85
2022-09-28T14:49:51.292Z,52.55
2022-09-28T14:52:44.024Z,52.41
2022-09-28T14:55:27.616Z,52.25
2022-09-28T14:57:59.293Z,52.33
2022-09-28T15:00:31.810Z,52.60
2022-09-28T15:03:07.863Z,52.81
2022-09-28T15:05:47.107Z,52.92
2022-09-28T15:08:18.050Z,52.83
2022-09-28T15:10:48.262Z,52.46
2022-09-28T15:13:22.213Z,52.65
2022-09-28T15:15:54.675Z,52.92
2022-09-28T15:19:06.055Z,52.96
2022-09-28T15:21:40.157Z,52.84
2022-09-28T15:24:32.604Z,52.73
2022-09-28T15:27:02.082Z,52.66
2022-09-28T15:29:33.419Z,52.73
2022-09-28T15:32:02.352Z,52.54
2022-09-28T15:34:50.952Z,52.87
2022-09-28T15:37:22.978Z,52.61
2022-09-28T15:39:55.245Z,52.79
2022-09-28T15:42:23.833Z,52.87
2022-09-28T15:45:26.711Z,52.89
2022-09-28T15:48:17.215Z,52.92
2022-09-28T15:51:01.703Z,53.08
2022-09-28T15:53:31.352Z,53.01
2022-09-28T15:56:10.054Z,53.04
2022-09-28T15:58:39.374Z,52.94
2022-09-28T16:01:36.403Z,52.97
2022-09-28T16:04:51.754Z,53.08
2022-09-28T16:07:35.468Z,53.21
2022-09-28T16:10:30.938Z,53.20
2022-09-28T16:13:16.124Z,53.09
2022-09-28T16:15:44.856Z,53.17
2022-09-28T16:18:23.502Z,52.98
2022-09-28T16:20:54.227Z,53.04
2022-09-28T16:23:26.841Z,52.64
2022-09-28T16:26:00.187Z,52.39
2022-09-28T16:28:55.787Z,52.37
2022-09-28T16:31:33.663Z,52.39
2022-09-28T16:34:19.837Z,52.50
2022-09-28T16:36:50.380Z,52.50
2022-09-28T16:39:20.673Z,52.89
2022-09-28T16:41:53.761Z,52.90
2022-09-28T16:44:31.821Z,52.94
2022-09-28T16:47:01.274Z,53.22
2022-09-28T16:49:32.251Z,53.33
2022-09-28T16:52:02.459Z,53.49
2022-09-28T16:54:59.616Z,53.55
2022-09-28T16:57:29.150Z,53.58
2022-09-28T16:59:58.851Z,53.62
2022-09-28T17:02:45.600Z,53.72
2022-09-28T17:05:16.863Z,53.77
2022-09-28T17:07:46.155Z,53.92
2022-09-28T17:10:19.302Z,53.87
2022-09-28T17:12:47.676Z,53.81
2022-09-28T17:15:19.529Z,53.92
2022-09-28T17:17:48.809Z,54.09
2022-09-28T17:20:24.109Z,54.13
2022-09-28T17:22:53.420Z,54.02
2022-09-28T17:25:24.531Z,54.15
2022-09-28T17:27:55.608Z,54.15
2022-09-28T17:30:26.593Z,54.17
2022-09-28T17:32:54.963Z,53.96
2022-09-28T17:35:25.023Z,54.23
2022-09-28T17:37:54.274Z,54.08
2022-09-28T17:40:25.289Z,54.04
2022-09-28T17:42:56.183Z,54.09
2022-09-28T17:45:28.494Z,54.39
2022-09-28T17:47:57.357Z,54.29
2022-09-28T17:50:28.595Z,54.31
2022-09-28T17:52:59.799Z,54.23
2022-09-28T17:55:30.480Z,54.13
2022-09-28T17:58:01.021Z,54.11
2022-09-28T18:00:30.842Z,54.22
2022-09-28T18:02:59.894Z,54.44
2022-09-28T18:05:30.268Z,54.58
2022-09-28T18:07:59.204Z,54.74
2022-09-28T18:10:29.785Z,54.75
2022-09-28T18:12:58.146Z,54.80
2022-09-28T18:15:26.477Z,54.68
2022-09-28T18:17:56.144Z,54.50
2022-09-28T18:20:24.468Z,54.59
2022-09-28T18:22:52.779Z,54.67
2022-09-28T18:25:21.085Z,54.52
2022-09-28T18:27:49.471Z,54.69
2022-09-28T18:30:17.910Z,54.64
2022-09-28T18:32:46.111Z,54.59
2022-09-28T18:35:19.371Z,54.51
2022-09-28T18:37:50.379Z,54.52
2022-09-28T18:40:20.102Z,54.50
2022-09-28T18:42:50.368Z,54.50
2022-09-28T18:45:19.691Z,54.58
2022-09-28T18:47:48.028Z,54.45
2022-09-28T18:50:17.921Z,54.62
2022-09-28T18:52:47.299Z,54.59
2022-09-28T18:55:15.896Z,54.54
2022-09-28T18:57:44.729Z,54.42
2022-09-28T19:00:15.212Z,54.35
2022-09-28T19:02:44.029Z,54.42
2022-09-28T19:05:12.374Z,54.33
2022-09-28T19:07:42.071Z,54.29
2022-09-28T19:10:10.733Z,54.34
2022-09-28T19:12:38.984Z,54.34
2022-09-28T19:15:08.907Z,54.51
2022-09-28T19:17:37.227Z,54.37
2022-09-28T19:20:06.731Z,54.34
2022-09-28T19:22:35.041Z,54.33
2022-09-28T19:25:05.035Z,54.38
2022-09-28T19:27:33.357Z,54.26
2022-09-28T19:30:01.694Z,54.40
2022-09-28T19:32:30.771Z,54.28
2022-09-28T19:34:59.396Z,54.26
2022-09-28T19:37:27.685Z,54.24
2022-09-28T19:39:55.961Z,54.30
2022-09-28T19:42:25.625Z,54.26
2022-09-28T19:44:53.890Z,54.43
2022-09-28T19:47:22.247Z,54.49
2022-09-28T19:49:51.358Z,54.58
2022-09-28T19:52:19.719Z,54.62
2022-09-28T19:54:56.771Z,54.49
2022-09-28T19:57:29.469Z,54.63
2022-09-28T20:00:02.445Z,54.63
2022-09-28T20:02:31.739Z,54.78
2022-09-28T20:05:00.052Z,54.88
2022-09-28T20:07:32.669Z,54.74
2022-09-28T20:10:00.976Z,54.89
2022-09-28T20:12:30.648Z,54.94
2022-09-28T20:14:59.244Z,54.88
2022-09-28T20:17:27.555Z,54.97
2022-09-28T20:19:55.825Z,54.91
2022-09-28T20:22:24.204Z,55.18
2022-09-28T20:24:52.438Z,55.15
2022-09-28T20:27:24.318Z,55.28
2022-09-28T20:29:55.955Z,55.33
2022-09-28T20:32:24.270Z,55.31
2022-09-28T20:34:52.578Z,55.46
2022-09-28T20:37:20.897Z,55.26
2022-09-28T20:39:49.208Z,55.35
2022-09-28T20:42:17.611Z,55.55
2022-09-28T20:44:46.136Z,55.50
2022-09-28T20:47:15.808Z,55.42
2022-09-28T20:49:44.461Z,55.49
2022-09-28T20:52:12.880Z,55.58
2022-09-28T20:54:41.177Z,55.60
2022-09-28T20:57:18.300Z,55.43
2022-09-28T20:59:50.853Z,55.71
2022-09-28T21:02:23.546Z,55.44
2022-09-28T21:04:52.003Z,55.40
2022-09-28T21:07:20.351Z,55.43
2022-09-28T21:09:50.468Z,55.37
2022-09-28T21:12:19.139Z,55.29
2022-09-28T21:14:47.402Z,55.22
2022-09-28T21:17:15.918Z,55.36
2022-09-28T21:19:45.575Z,55.16
2022-09-28T21:22:14.047Z,55.41
2022-09-28T21:24:42.325Z,55.41
2022-09-28T21:27:10.573Z,55.42
2022-09-28T21:29:38.770Z,55.50
2022-09-28T21:32:08.196Z,55.39
2022-09-28T21:34:36.851Z,55.55
2022-09-28T21:37:06.718Z,55.43
2022-09-28T21:39:34.970Z,55.81
2022-09-28T21:42:03.244Z,55.60
2022-09-28T21:44:31.447Z,55.89
2022-09-28T21:46:59.697Z,55.86
2022-09-28T21:49:27.926Z,55.93
2022-09-28T21:51:56.161Z,55.96
2022-09-28T21:54:25.833Z,55.90
2022-09-28T21:56:54.111Z,55.93
2022-09-28T21:59:22.391Z,55.94
2022-09-28T22:01:50.755Z,55.95
2022-09-28T22:04:19.104Z,55.87
2022-09-28T22:06:47.473Z,55.76
2022-09-28T22:09:15.685Z,55.94
2022-09-28T22:11:45.335Z,55.76
2022-09-28T22:14:13.709Z,55.38
2022-09-28T22:16:42.092Z,55.36
2022-09-28T22:19:10.398Z,54.94
2022-09-28T22:21:39.803Z,55.05
2022-09-28T22:24:09.208Z,55.13
2022-09-28T22:26:39.424Z,55.28
2022-09-28T22:29:10.618Z,55.15
2022-09-28T22:31:40.979Z,55.22
2022-09-28T22:34:10.303Z,55.39
2022-09-28T22:36:38.532Z,55.61
2022-09-28T22:39:07.122Z,55.12
2022-09-28T22:41:35.527Z,55.46
2022-09-28T22:44:03.872Z,55.18
2022-09-28T22:46:33.624Z,55.09
2022-09-28T22:49:02.366Z,55.18
2022-09-28T22:51:31.858Z,55.10
2022-09-28T22:54:01.177Z,54.99
2022-09-28T22:56:30.386Z,55.15
2022-09-28T22:58:58.942Z,55.44
2022-09-28T23:01:29.774Z,55.37
2022-09-28T23:04:00.845Z,55.52
2022-09-28T23:06:30.808Z,55.44
2022-09-28T23:08:59.335Z,55.56
2022-09-28T23:11:28.351Z,55.73
2022-09-28T23:13:58.806Z,55.53
2022-09-28T23:16:27.966Z,55.64
2022-09-28T23:18:58.740Z,55.75
2022-09-28T23:21:28.298Z,55.83
2022-09-28T23:24:00.970Z,55.87
2022-09-28T23:26:32.463Z,55.95
2022-09-28T23:29:01.293Z,55.97
2022-09-28T23:31:31.893Z,55.71
2022-09-28T23:34:04.977Z,55.91
2022-09-28T23:36:34.251Z,55.96
2022-09-28T23:39:02.760Z,56.04
2022-09-28T23:41:31.165Z,55.94
2022-09-28T23:43:59.446Z,55.84
2022-09-28T23:46:28.069Z,55.83
2022-09-28T23:48:56.537Z,56.11
2022-09-28T23:51:26.253Z,56.21
2022-09-28T23:53:54.581Z,56.11
2022-09-28T23:56:22.839Z,56.32
2022-09-28T23:58:51.084Z,56.30
